sensor_id;sensor_type;location;lat;lon;timestamp;P1;durP1;ratioP1;P2;durP2;ratioP2
15788;SDS011;59075;50.670;6.474;2022-08-19T05:00:58;883.77;;;823.37;;
15788;SDS011;59075;50.670;6.474;2022-08-19T05:03:26;878.57;;;818.20;;
15788;SDS011;59075;50.670;6.474;2022-08-19T05:05:58;876.07;;;816.00;;
15788;SDS011;59075;50.670;6.474;2022-08-19T05:08:30;892.17;;;831.13;;
15788;SDS011;59075;50.670;6.474;2022-08-19T05:10:57;880.57;;;820.30;;
15788;SDS011;59075;50.670;6.474;2022-08-19T05:13:24;880.77;;;820.37;;
15788;SDS011;59075;50.670;6.474;2022-08-19T05:15:54;883.17;;;822.87;;
15788;SDS011;59075;50.670;6.474;2022-08-19T05:18:23;889.60;;;829.00;;
15788;SDS011;59075;50.670;6.474;2022-08-19T05:21:08;879.43;;;819.27;;
15788;SDS011;59075;50.670;6.474;2022-08-19T05:23:54;886.13;;;825.40;;
15788;SDS011;59075;50.670;6.474;2022-08-19T05:26:21;882.90;;;822.60;;
15788;SDS011;59075;50.670;6.474;2022-08-19T05:28:47;876.83;;;816.60;;
15788;SDS011;59075;50.670;6.474;2022-08-19T05:31:14;881.03;;;820.83;;
15788;SDS011;59075;50.670;6.474;2022-08-19T05:33:42;889.97;;;829.17;;
15788;SDS011;59075;50.670;6.474;2022-08-19T05:36:09;892.00;;;831.10;;
15788;SDS011;59075;50.670;6.474;2022-08-19T05:38:36;880.53;;;820.13;;
15788;SDS011;59075;50.670;6.474;2022-08-19T05:41:06;882.17;;;821.90;;
15788;SDS011;59075;50.670;6.474;2022-08-19T05:43:34;884.07;;;823.57;;
15788;SDS011;59075;50.670;6.474;2022-08-19T05:46:00;878.23;;;818.27;;
15788;SDS011;59075;50.670;6.474;2022-08-19T05:48:27;878.73;;;818.53;;
15788;SDS011;59075;50.670;6.474;2022-08-19T05:50:56;876.30;;;816.37;;
15788;SDS011;59075;50.670;6.474;2022-08-19T05:53:23;883.73;;;823.30;;
15788;SDS011;59075;50.670;6.474;2022-08-19T05:55:50;874.87;;;814.50;;
15788;SDS011;59075;50.670;6.474;2022-08-19T05:58:17;884.27;;;823.90;;
15788;SDS011;59075;50.670;6.474;2022-08-19T06:00:43;886.43;;;825.97;;
15788;SDS011;59075;50.670;6.474;2022-08-19T06:03:10;887.33;;;826.93;;
15788;SDS011;59075;50.670;6.474;2022-08-19T06:05:37;879.87;;;819.60;;
15788;SDS011;59075;50.670;6.474;2022-08-19T06:08:05;880.33;;;820.27;;
15788;SDS011;59075;50.670;6.474;2022-08-19T06:10:32;882.43;;;822.30;;
15788;SDS011;59075;50.670;6.474;2022-08-19T06:12:59;893.13;;;832.33;;
15788;SDS011;59075;50.670;6.474;2022-08-19T06:15:25;887.00;;;826.67;;
15788;SDS011;59075;50.670;6.474;2022-08-19T06:17:52;886.00;;;825.50;;
15788;SDS011;59075;50.670;6.474;2022-08-19T06:20:19;893.60;;;832.90;;
15788;SDS011;59075;50.670;6.474;2022-08-19T06:22:47;889.60;;;829.03;;
15788;SDS011;59075;50.670;6.474;2022-08-19T06:25:17;888.80;;;828.17;;
15788;SDS011;59075;50.670;6.474;2022-08-19T06:27:44;879.30;;;819.13;;
15788;SDS011;59075;50.670;6.474;2022-08-19T06:30:11;875.77;;;815.73;;
15788;SDS011;59075;50.670;6.474;2022-08-19T06:32:39;888.13;;;827.40;;
15788;SDS011;59075;50.670;6.474;2022-08-19T06:35:06;884.43;;;823.90;;
15788;SDS011;59075;50.670;6.474;2022-08-19T06:37:33;893.93;;;833.17;;
15788;SDS011;59075;50.670;6.474;2022-08-19T06:40:00;886.03;;;825.53;;
15788;SDS011;59075;50.670;6.474;2022-08-19T06:42:28;889.07;;;828.60;;
15788;SDS011;59075;50.670;6.474;2022-08-19T06:44:56;886.07;;;825.57;;
15788;SDS011;59075;50.670;6.474;2022-08-19T06:47:23;886.67;;;826.13;;
15788;SDS011;59075;50.670;6.474;2022-08-19T06:49:52;886.10;;;825.53;;
15788;SDS011;59075;50.670;6.474;2022-08-19T06:52:25;886.20;;;825.80;;
15788;SDS011;59075;50.670;6.474;2022-08-19T06:54:52;882.53;;;822.17;;
15788;SDS011;59075;50.670;6.474;2022-08-19T06:57:21;876.80;;;816.73;;
15788;SDS011;59075;50.670;6.474;2022-08-19T06:59:49;883.20;;;823.00;;
15788;SDS011;59075;50.670;6.474;2022-08-19T07:02:16;891.33;;;830.70;;
15788;SDS011;59075;50.670;6.474;2022-08-19T07:04:42;888.90;;;828.30;;
15788;SDS011;59075;50.670;6.474;2022-08-19T07:07:10;887.50;;;826.83;;
15788;SDS011;59075;50.670;6.474;2022-08-19T07:09:39;879.47;;;819.30;;
15788;SDS011;59075;50.670;6.474;2022-08-19T07:12:08;885.60;;;825.30;;
15788;SDS011;59075;50.670;6.474;2022-08-19T07:14:38;890.87;;;830.30;;
15788;SDS011;59075;50.670;6.474;2022-08-19T07:17:08;878.67;;;818.73;;
15788;SDS011;59075;50.670;6.474;2022-08-19T07:19:37;891.23;;;830.60;;
15788;SDS011;59075;50.670;6.474;2022-08-19T07:22:05;883.43;;;823.03;;
15788;SDS011;59075;50.670;6.474;2022-08-19T07:24:33;894.77;;;833.90;;
15788;SDS011;59075;50.670;6.474;2022-08-19T07:27:01;882.30;;;822.07;;
15788;SDS011;59075;50.670;6.474;2022-08-19T07:29:30;883.40;;;822.80;;
15788;SDS011;59075;50.670;6.474;2022-08-19T07:31:59;892.57;;;831.93;;
15788;SDS011;59075;50.670;6.474;2022-08-19T07:34:29;882.33;;;822.00;;
15788;SDS011;59075;50.670;6.474;2022-08-19T07:36:59;877.03;;;816.87;;
15788;SDS011;59075;50.670;6.474;2022-08-19T07:39:26;885.83;;;825.23;;
15788;SDS011;59075;50.670;6.474;2022-08-19T07:41:55;887.27;;;826.67;;
15788;SDS011;59075;50.670;6.474;2022-08-19T07:44:24;888.27;;;827.57;;
15788;SDS011;59075;50.670;6.474;2022-08-19T07:46:52;890.57;;;829.97;;
15788;SDS011;59075;50.670;6.474;2022-08-19T07:49:20;893.43;;;832.53;;
15788;SDS011;59075;50.670;6.474;2022-08-19T07:51:50;888.77;;;828.13;;
15788;SDS011;59075;50.670;6.474;2022-08-19T07:54:18;885.13;;;824.70;;
15788;SDS011;59075;50.670;6.474;2022-08-19T07:56:46;890.67;;;829.97;;
15788;SDS011;59075;50.670;6.474;2022-08-19T07:59:14;902.23;;;840.03;;
15788;SDS011;59075;50.670;6.474;2022-08-19T08:01:42;890.67;;;829.93;;
15788;SDS011;59075;50.670;6.474;2022-08-19T08:04:10;887.73;;;827.07;;
15788;SDS011;59075;50.670;6.474;2022-08-19T08:06:56;883.37;;;823.10;;
15788;SDS011;59075;50.670;6.474;2022-08-19T08:09:41;895.30;;;834.47;;
15788;SDS011;59075;50.670;6.474;2022-08-19T08:12:10;879.00;;;818.77;;
15788;SDS011;59075;50.670;6.474;2022-08-19T08:14:39;888.67;;;827.93;;
15788;SDS011;59075;50.670;6.474;2022-08-19T08:17:09;894.93;;;834.00;;
15788;SDS011;59075;50.670;6.474;2022-08-19T08:19:37;887.83;;;827.33;;
15788;SDS011;59075;50.670;6.474;2022-08-19T08:22:07;887.77;;;827.17;;
15788;SDS011;59075;50.670;6.474;2022-08-19T08:24:55;881.20;;;820.93;;
15788;SDS011;59075;50.670;6.474;2022-08-19T08:27:24;893.27;;;832.50;;
15788;SDS011;59075;50.670;6.474;2022-08-19T08:29:51;898.97;;;838.07;;
15788;SDS011;59075;50.670;6.474;2022-08-19T08:32:17;893.93;;;833.03;;
15788;SDS011;59075;50.670;6.474;2022-08-19T08:34:44;908.90;;;847.40;;
15788;SDS011;59075;50.670;6.474;2022-08-19T08:37:12;897.07;;;836.13;;
15788;SDS011;59075;50.670;6.474;2022-08-19T08:39:39;906.07;;;844.77;;
15788;SDS011;59075;50.670;6.474;2022-08-19T08:42:07;894.57;;;833.87;;
15788;SDS011;59075;50.670;6.474;2022-08-19T08:44:39;895.03;;;834.13;;
15788;SDS011;59075;50.670;6.474;2022-08-19T08:47:15;896.67;;;835.87;;
15788;SDS011;59075;50.670;6.474;2022-08-19T08:49:47;883.90;;;823.20;;
15788;SDS011;59075;50.670;6.474;2022-08-19T08:52:21;898.93;;;837.97;;
15788;SDS011;59075;50.670;6.474;2022-08-19T08:54:51;896.87;;;835.90;;
15788;SDS011;59075;50.670;6.474;2022-08-19T08:57:23;887.33;;;826.80;;
15788;SDS011;59075;50.670;6.474;2022-08-19T08:59:54;907.63;;;846.40;;
15788;SDS011;59075;50.670;6.474;2022-08-19T09:02:23;901.50;;;840.43;;
15788;SDS011;59075;50.670;6.474;2022-08-19T09:04:50;899.07;;;838.03;;
15788;SDS011;59075;50.670;6.474;2022-08-19T09:07:22;893.90;;;832.83;;
15788;SDS011;59075;50.670;6.474;2022-08-19T09:10:02;894.07;;;833.33;;
15788;SDS011;59075;50.670;6.474;2022-08-19T09:12:37;903.00;;;841.67;;
15788;SDS011;59075;50.670;6.474;2022-08-19T09:15:12;899.37;;;838.27;;
15788;SDS011;59075;50.670;6.474;2022-08-19T09:17:39;900.47;;;839.37;;
15788;SDS011;59075;50.670;6.474;2022-08-19T09:20:12;894.57;;;833.57;;
15788;SDS011;59075;50.670;6.474;2022-08-19T09:22:43;894.93;;;834.03;;
15788;SDS011;59075;50.670;6.474;2022-08-19T09:25:10;890.50;;;829.73;;
15788;SDS011;59075;50.670;6.474;2022-08-19T09:27:38;902.03;;;840.73;;
15788;SDS011;59075;50.670;6.474;2022-08-19T09:30:06;897.30;;;836.30;;
15788;SDS011;59075;50.670;6.474;2022-08-19T09:32:35;899.73;;;838.70;;
15788;SDS011;59075;50.670;6.474;2022-08-19T09:35:04;903.20;;;841.93;;
15788;SDS011;59075;50.670;6.474;2022-08-19T09:37:31;898.30;;;837.17;;
15788;SDS011;59075;50.670;6.474;2022-08-19T09:39:59;896.10;;;834.97;;
15788;SDS011;59075;50.670;6.474;2022-08-19T09:42:26;899.33;;;838.10;;
15788;SDS011;59075;50.670;6.474;2022-08-19T09:44:52;902.57;;;841.30;;
15788;SDS011;59075;50.670;6.474;2022-08-19T09:47:19;902.30;;;841.10;;
15788;SDS011;59075;50.670;6.474;2022-08-19T09:49:46;900.00;;;838.93;;
15788;SDS011;59075;50.670;6.474;2022-08-19T09:52:13;903.80;;;842.47;;
15788;SDS011;59075;50.670;6.474;2022-08-19T09:54:41;898.60;;;837.40;;
15788;SDS011;59075;50.670;6.474;2022-08-19T09:57:14;904.23;;;842.80;;
15788;SDS011;59075;50.670;6.474;2022-08-19T10:00:02;903.23;;;841.90;;
15788;SDS011;59075;50.670;6.474;2022-08-19T10:02:32;910.87;;;849.27;;
15788;SDS011;59075;50.670;6.474;2022-08-19T10:04:59;907.10;;;845.60;;
15788;SDS011;59075;50.670;6.474;2022-08-19T10:07:43;912.20;;;850.47;;
15788;SDS011;59075;50.670;6.474;2022-08-19T10:10:10;912.20;;;850.63;;
15788;SDS011;59075;50.670;6.474;2022-08-19T10:12:39;909.17;;;847.23;;
15788;SDS011;59075;50.670;6.474;2022-08-19T10:15:07;902.77;;;841.37;;
15788;SDS011;59075;50.670;6.474;2022-08-19T10:17:40;906.47;;;845.00;;
15788;SDS011;59075;50.670;6.474;2022-08-19T10:20:07;904.80;;;843.37;;
15788;SDS011;59075;50.670;6.474;2022-08-19T10:22:34;907.60;;;845.93;;
15788;SDS011;59075;50.670;6.474;2022-08-19T10:25:03;903.97;;;842.60;;
15788;SDS011;59075;50.670;6.474;2022-08-19T10:27:31;906.87;;;845.27;;
15788;SDS011;59075;50.670;6.474;2022-08-19T10:29:59;915.97;;;854.17;;
15788;SDS011;59075;50.670;6.474;2022-08-19T10:32:26;904.40;;;842.87;;
15788;SDS011;59075;50.670;6.474;2022-08-19T10:34:54;911.37;;;849.70;;
15788;SDS011;59075;50.670;6.474;2022-08-19T10:37:21;904.60;;;843.03;;
15788;SDS011;59075;50.670;6.474;2022-08-19T10:39:48;915.60;;;853.57;;
15788;SDS011;59075;50.670;6.474;2022-08-19T10:42:15;907.30;;;845.70;;
15788;SDS011;59075;50.670;6.474;2022-08-19T10:44:43;896.23;;;835.07;;
15788;SDS011;59075;50.670;6.474;2022-08-19T10:47:12;901.73;;;840.33;;
15788;SDS011;59075;50.670;6.474;2022-08-19T10:49:39;910.57;;;848.83;;
15788;SDS011;59075;50.670;6.474;2022-08-19T10:52:20;911.17;;;849.27;;
15788;SDS011;59075;50.670;6.474;2022-08-19T10:54:59;910.17;;;848.30;;
15788;SDS011;59075;50.670;6.474;2022-08-19T10:57:44;902.17;;;840.97;;
15788;SDS011;59075;50.670;6.474;2022-08-19T11:00:11;913.87;;;851.93;;
15788;SDS011;59075;50.670;6.474;2022-08-19T11:02:40;911.10;;;849.13;;
15788;SDS011;59075;50.670;6.474;2022-08-19T11:05:07;915.97;;;853.87;;
15788;SDS011;59075;50.670;6.474;2022-08-19T11:07:36;915.23;;;853.17;;
15788;SDS011;59075;50.670;6.474;2022-08-19T11:10:03;913.83;;;851.87;;
15788;SDS011;59075;50.670;6.474;2022-08-19T11:12:30;923.93;;;861.47;;
15788;SDS011;59075;50.670;6.474;2022-08-19T11:14:58;914.17;;;852.07;;
15788;SDS011;59075;50.670;6.474;2022-08-19T11:17:25;912.73;;;850.97;;
15788;SDS011;59075;50.670;6.474;2022-08-19T11:19:53;902.80;;;841.23;;
15788;SDS011;59075;50.670;6.474;2022-08-19T11:22:19;907.20;;;845.50;;
15788;SDS011;59075;50.670;6.474;2022-08-19T11:24:46;916.43;;;854.20;;
15788;SDS011;59075;50.670;6.474;2022-08-19T11:27:13;905.23;;;843.47;;
15788;SDS011;59075;50.670;6.474;2022-08-19T11:29:40;900.40;;;838.90;;
15788;SDS011;59075;50.670;6.474;2022-08-19T11:32:08;918.97;;;856.50;;
15788;SDS011;59075;50.670;6.474;2022-08-19T11:34:35;908.07;;;846.13;;
15788;SDS011;59075;50.670;6.474;2022-08-19T11:37:04;914.70;;;852.73;;
15788;SDS011;59075;50.670;6.474;2022-08-19T11:39:33;919.03;;;856.77;;
15788;SDS011;59075;50.670;6.474;2022-08-19T11:42:02;923.00;;;860.47;;
15788;SDS011;59075;50.670;6.474;2022-08-19T11:44:50;909.87;;;847.90;;
15788;SDS011;59075;50.670;6.474;2022-08-19T11:47:17;907.90;;;846.00;;
15788;SDS011;59075;50.670;6.474;2022-08-19T11:49:45;915.87;;;853.67;;
15788;SDS011;59075;50.670;6.474;2022-08-19T11:52:13;908.73;;;846.70;;
15788;SDS011;59075;50.670;6.474;2022-08-19T11:54:40;909.87;;;847.93;;
15788;SDS011;59075;50.670;6.474;2022-08-19T11:57:06;909.53;;;847.60;;
15788;SDS011;59075;50.670;6.474;2022-08-19T11:59:33;912.93;;;850.73;;
15788;SDS011;59075;50.670;6.474;2022-08-19T12:02:00;910.63;;;848.53;;
15788;SDS011;59075;50.670;6.474;2022-08-19T12:04:26;912.13;;;850.00;;
15788;SDS011;59075;50.670;6.474;2022-08-19T12:06:53;908.60;;;846.67;;
15788;SDS011;59075;50.670;6.474;2022-08-19T12:09:21;910.87;;;848.27;;
15788;SDS011;59075;50.670;6.474;2022-08-19T12:11:48;913.07;;;850.90;;
15788;SDS011;59075;50.670;6.474;2022-08-19T12:14:16;913.30;;;851.20;;
15788;SDS011;59075;50.670;6.474;2022-08-19T12:16:43;924.50;;;861.93;;
15788;SDS011;59075;50.670;6.474;2022-08-19T12:19:11;926.20;;;862.80;;
15788;SDS011;59075;50.670;6.474;2022-08-19T12:21:38;920.53;;;858.03;;
15788;SDS011;59075;50.670;6.474;2022-08-19T12:24:05;918.97;;;856.67;;
15788;SDS011;59075;50.670;6.474;2022-08-19T12:26:34;916.13;;;854.00;;
15788;SDS011;59075;50.670;6.474;2022-08-19T12:29:01;922.97;;;860.20;;
15788;SDS011;59075;50.670;6.474;2022-08-19T12:31:29;917.30;;;855.13;;
15788;SDS011;59075;50.670;6.474;2022-08-19T12:33:56;917.10;;;854.97;;
15788;SDS011;59075;50.670;6.474;2022-08-19T12:36:23;922.37;;;860.03;;
15788;SDS011;59075;50.670;6.474;2022-08-19T12:38:50;915.13;;;853.13;;
15788;SDS011;59075;50.670;6.474;2022-08-19T12:41:17;920.60;;;858.13;;
15788;SDS011;59075;50.670;6.474;2022-08-19T12:43:48;908.50;;;846.63;;
15788;SDS011;59075;50.670;6.474;2022-08-19T12:46:16;913.20;;;851.20;;
15788;SDS011;59075;50.670;6.474;2022-08-19T12:48:43;917.73;;;855.57;;
15788;SDS011;59075;50.670;6.474;2022-08-19T12:51:11;911.00;;;848.73;;
15788;SDS011;59075;50.670;6.474;2022-08-19T12:53:39;908.73;;;846.90;;
15788;SDS011;59075;50.670;6.474;2022-08-19T12:56:06;920.43;;;857.97;;
15788;SDS011;59075;50.670;6.474;2022-08-19T12:58:34;913.63;;;851.47;;
15788;SDS011;59075;50.670;6.474;2022-08-19T13:01:07;916.47;;;854.23;;
15788;SDS011;59075;50.670;6.474;2022-08-19T13:03:35;912.83;;;850.77;;
15788;SDS011;59075;50.670;6.474;2022-08-19T13:06:02;908.90;;;846.97;;
15788;SDS011;59075;50.670;6.474;2022-08-19T13:08:29;909.53;;;847.37;;
15788;SDS011;59075;50.670;6.474;2022-08-19T13:10:57;915.23;;;852.90;;
15788;SDS011;59075;50.670;6.474;2022-08-19T13:13:24;919.80;;;857.43;;
15788;SDS011;59075;50.670;6.474;2022-08-19T13:15:51;924.10;;;861.70;;
15788;SDS011;59075;50.670;6.474;2022-08-19T13:18:19;915.30;;;853.20;;
15788;SDS011;59075;50.670;6.474;2022-08-19T13:20:46;923.17;;;860.60;;
15788;SDS011;59075;50.670;6.474;2022-08-19T13:23:13;923.63;;;861.17;;
15788;SDS011;59075;50.670;6.474;2022-08-19T13:25:40;915.07;;;853.00;;
15788;SDS011;59075;50.670;6.474;2022-08-19T13:28:07;927.90;;;865.20;;
15788;SDS011;59075;50.670;6.474;2022-08-19T13:30:34;921.37;;;859.00;;
15788;SDS011;59075;50.670;6.474;2022-08-19T13:33:21;915.90;;;853.93;;
15788;SDS011;59075;50.670;6.474;2022-08-19T13:35:58;907.33;;;845.60;;
15788;SDS011;59075;50.670;6.474;2022-08-19T13:38:26;925.77;;;863.33;;
15788;SDS011;59075;50.670;6.474;2022-08-19T13:40:55;910.67;;;848.50;;
15788;SDS011;59075;50.670;6.474;2022-08-19T13:43:22;910.83;;;848.87;;
15788;SDS011;59075;50.670;6.474;2022-08-19T13:45:52;915.00;;;852.93;;
15788;SDS011;59075;50.670;6.474;2022-08-19T13:48:22;916.80;;;854.63;;
15788;SDS011;59075;50.670;6.474;2022-08-19T13:50:51;905.07;;;843.40;;
15788;SDS011;59075;50.670;6.474;2022-08-19T13:53:19;917.97;;;855.80;;
15788;SDS011;59075;50.670;6.474;2022-08-19T13:55:45;919.20;;;856.77;;
15788;SDS011;59075;50.670;6.474;2022-08-19T13:58:12;931.10;;;868.40;;
15788;SDS011;59075;50.670;6.474;2022-08-19T14:00:40;909.73;;;847.90;;
15788;SDS011;59075;50.670;6.474;2022-08-19T14:03:08;918.87;;;856.77;;
15788;SDS011;59075;50.670;6.474;2022-08-19T14:05:37;919.13;;;857.00;;
15788;SDS011;59075;50.670;6.474;2022-08-19T14:08:04;920.63;;;858.27;;
15788;SDS011;59075;50.670;6.474;2022-08-19T14:10:31;921.10;;;858.87;;
15788;SDS011;59075;50.670;6.474;2022-08-19T14:13:01;926.17;;;863.83;;
15788;SDS011;59075;50.670;6.474;2022-08-19T14:15:28;923.23;;;860.90;;
15788;SDS011;59075;50.670;6.474;2022-08-19T14:17:56;911.30;;;849.57;;
15788;SDS011;59075;50.670;6.474;2022-08-19T14:20:23;927.97;;;865.23;;
15788;SDS011;59075;50.670;6.474;2022-08-19T14:22:51;931.90;;;869.17;;
15788;SDS011;59075;50.670;6.474;2022-08-19T14:25:21;923.00;;;860.63;;
15788;SDS011;59075;50.670;6.474;2022-08-19T14:27:50;927.87;;;865.30;;
15788;SDS011;59075;50.670;6.474;2022-08-19T14:30:18;934.47;;;871.70;;
15788;SDS011;59075;50.670;6.474;2022-08-19T14:32:47;928.20;;;865.53;;
15788;SDS011;59075;50.670;6.474;2022-08-19T14:35:14;932.63;;;870.10;;
15788;SDS011;59075;50.670;6.474;2022-08-19T14:37:42;935.50;;;872.33;;
15788;SDS011;59075;50.670;6.474;2022-08-19T14:40:11;930.67;;;867.93;;
15788;SDS011;59075;50.670;6.474;2022-08-19T14:42:39;926.37;;;863.87;;
15788;SDS011;59075;50.670;6.474;2022-08-19T14:45:07;920.67;;;858.40;;
15788;SDS011;59075;50.670;6.474;2022-08-19T14:47:35;919.80;;;857.70;;
15788;SDS011;59075;50.670;6.474;2022-08-19T14:50:03;925.37;;;863.03;;
15788;SDS011;59075;50.670;6.474;2022-08-19T14:52:31;934.37;;;871.63;;
15788;SDS011;59075;50.670;6.474;2022-08-19T14:54:58;924.73;;;862.33;;
15788;SDS011;59075;50.670;6.474;2022-08-19T14:57:26;933.57;;;870.97;;
15788;SDS011;59075;50.670;6.474;2022-08-19T14:59:53;931.50;;;868.87;;
15788;SDS011;59075;50.670;6.474;2022-08-19T15:02:19;932.03;;;869.33;;
15788;SDS011;59075;50.670;6.474;2022-08-19T15:04:46;926.33;;;863.90;;
15788;SDS011;59075;50.670;6.474;2022-08-19T15:07:13;925.80;;;863.23;;
15788;SDS011;59075;50.670;6.474;2022-08-19T15:09:39;931.67;;;869.07;;
15788;SDS011;59075;50.670;6.474;2022-08-19T15:12:06;922.03;;;859.77;;
15788;SDS011;59075;50.670;6.474;2022-08-19T15:14:36;926.17;;;863.77;;
15788;SDS011;59075;50.670;6.474;2022-08-19T15:17:03;923.67;;;861.37;;
15788;SDS011;59075;50.670;6.474;2022-08-19T15:19:30;941.20;;;878.03;;
15788;SDS011;59075;50.670;6.474;2022-08-19T15:22:00;939.30;;;876.50;;
15788;SDS011;59075;50.670;6.474;2022-08-19T15:24:27;925.13;;;862.80;;
15788;SDS011;59075;50.670;6.474;2022-08-19T15:26:54;932.90;;;870.13;;
15788;SDS011;59075;50.670;6.474;2022-08-19T15:29:21;932.20;;;868.80;;
15788;SDS011;59075;50.670;6.474;2022-08-19T15:31:50;934.23;;;871.67;;
15788;SDS011;59075;50.670;6.474;2022-08-19T15:34:20;942.67;;;879.50;;
15788;SDS011;59075;50.670;6.474;2022-08-19T15:36:47;932.67;;;870.17;;
15788;SDS011;59075;50.670;6.474;2022-08-19T15:39:14;932.17;;;868.63;;
15788;SDS011;59075;50.670;6.474;2022-08-19T15:41:41;941.00;;;878.07;;
15788;SDS011;59075;50.670;6.474;2022-08-19T15:44:09;929.43;;;866.93;;
15788;SDS011;59075;50.670;6.474;2022-08-19T15:46:38;934.63;;;871.80;;
15788;SDS011;59075;50.670;6.474;2022-08-19T15:49:07;935.70;;;872.20;;
15788;SDS011;59075;50.670;6.474;2022-08-19T15:51:36;929.80;;;867.47;;
15788;SDS011;59075;50.670;6.474;2022-08-19T15:54:07;928.30;;;865.80;;
15788;SDS011;59075;50.670;6.474;2022-08-19T15:56:36;922.43;;;860.17;;
15788;SDS011;59075;50.670;6.474;2022-08-19T15:59:21;941.87;;;878.57;;
15788;SDS011;59075;50.670;6.474;2022-08-19T16:02:05;934.30;;;871.73;;
15788;SDS011;59075;50.670;6.474;2022-08-19T16:04:51;932.77;;;870.17;;
15788;SDS011;59075;50.670;6.474;2022-08-19T16:07:36;933.33;;;870.60;;
15788;SDS011;59075;50.670;6.474;2022-08-19T16:10:04;918.70;;;856.63;;
15788;SDS011;59075;50.670;6.474;2022-08-19T16:12:32;919.37;;;857.33;;
15788;SDS011;59075;50.670;6.474;2022-08-19T16:14:59;928.70;;;866.13;;
15788;SDS011;59075;50.670;6.474;2022-08-19T16:17:25;922.47;;;860.37;;
15788;SDS011;59075;50.670;6.474;2022-08-19T16:19:54;936.13;;;873.50;;
15788;SDS011;59075;50.670;6.474;2022-08-19T16:22:20;934.87;;;872.00;;
15788;SDS011;59075;50.670;6.474;2022-08-19T16:24:54;943.23;;;880.13;;
15788;SDS011;59075;50.670;6.474;2022-08-19T16:27:21;929.43;;;867.07;;
15788;SDS011;59075;50.670;6.474;2022-08-19T16:29:47;927.77;;;865.47;;
15788;SDS011;59075;50.670;6.474;2022-08-19T16:32:14;922.70;;;860.57;;
15788;SDS011;59075;50.670;6.474;2022-08-19T16:34:41;928.50;;;866.13;;
15788;SDS011;59075;50.670;6.474;2022-08-19T16:37:09;930.60;;;868.07;;
15788;SDS011;59075;50.670;6.474;2022-08-19T16:39:36;933.60;;;871.27;;
15788;SDS011;59075;50.670;6.474;2022-08-19T16:42:03;927.03;;;864.77;;
15788;SDS011;59075;50.670;6.474;2022-08-19T16:44:32;930.13;;;867.83;;
15788;SDS011;59075;50.670;6.474;2022-08-19T16:46:59;928.93;;;866.40;;
15788;SDS011;59075;50.670;6.474;2022-08-19T16:49:25;931.97;;;869.50;;
15788;SDS011;59075;50.670;6.474;2022-08-19T16:51:53;930.60;;;868.13;;
15788;SDS011;59075;50.670;6.474;2022-08-19T16:54:21;932.70;;;870.30;;
15788;SDS011;59075;50.670;6.474;2022-08-19T16:56:47;928.40;;;866.00;;
15788;SDS011;59075;50.670;6.474;2022-08-19T16:59:15;943.70;;;879.93;;
15788;SDS011;59075;50.670;6.474;2022-08-19T17:01:42;923.83;;;861.60;;
15788;SDS011;59075;50.670;6.474;2022-08-19T17:04:09;920.23;;;857.97;;
15788;SDS011;59075;50.670;6.474;2022-08-19T17:06:37;931.73;;;869.03;;
15788;SDS011;59075;50.670;6.474;2022-08-19T17:09:05;936.27;;;873.13;;
15788;SDS011;59075;50.670;6.474;2022-08-19T17:11:33;922.53;;;860.33;;
15788;SDS011;59075;50.670;6.474;2022-08-19T17:14:00;931.30;;;868.87;;
15788;SDS011;59075;50.670;6.474;2022-08-19T17:16:29;928.57;;;866.23;;
15788;SDS011;59075;50.670;6.474;2022-08-19T17:18:58;924.93;;;862.67;;
15788;SDS011;59075;50.670;6.474;2022-08-19T17:21:28;931.10;;;868.60;;
15788;SDS011;59075;50.670;6.474;2022-08-19T17:23:57;924.60;;;862.40;;
15788;SDS011;59075;50.670;6.474;2022-08-19T17:26:25;914.73;;;852.93;;
15788;SDS011;59075;50.670;6.474;2022-08-19T17:28:55;929.53;;;867.13;;
15788;SDS011;59075;50.670;6.474;2022-08-19T17:31:23;932.77;;;870.27;;
15788;SDS011;59075;50.670;6.474;2022-08-19T17:33:50;940.63;;;877.67;;
15788;SDS011;59075;50.670;6.474;2022-08-19T17:36:18;921.00;;;858.90;;
15788;SDS011;59075;50.670;6.474;2022-08-19T17:38:47;932.27;;;869.87;;
15788;SDS011;59075;50.670;6.474;2022-08-19T17:41:14;936.40;;;873.73;;
15788;SDS011;59075;50.670;6.474;2022-08-19T17:43:40;924.07;;;862.07;;
15788;SDS011;59075;50.670;6.474;2022-08-19T17:46:09;921.17;;;859.10;;
15788;SDS011;59075;50.670;6.474;2022-08-19T17:48:39;924.23;;;862.23;;
15788;SDS011;59075;50.670;6.474;2022-08-19T17:51:12;925.37;;;863.13;;
15788;SDS011;59075;50.670;6.474;2022-08-19T17:53:39;920.93;;;858.80;;
15788;SDS011;59075;50.670;6.474;2022-08-19T17:56:06;936.27;;;873.63;;
15788;SDS011;59075;50.670;6.474;2022-08-19T17:58:34;928.37;;;866.13;;
15788;SDS011;59075;50.670;6.474;2022-08-19T18:01:05;922.00;;;860.10;;
15788;SDS011;59075;50.670;6.474;2022-08-19T18:03:35;931.90;;;869.27;;
15788;SDS011;59075;50.670;6.474;2022-08-19T18:06:02;925.50;;;863.27;;
15788;SDS011;59075;50.670;6.474;2022-08-19T18:08:29;925.33;;;863.30;;
15788;SDS011;59075;50.670;6.474;2022-08-19T18:10:56;929.93;;;867.53;;
15788;SDS011;59075;50.670;6.474;2022-08-19T18:13:23;922.43;;;860.33;;
15788;SDS011;59075;50.670;6.474;2022-08-19T18:15:50;924.40;;;862.20;;
15788;SDS011;59075;50.670;6.474;2022-08-19T18:18:18;915.60;;;853.93;;
15788;SDS011;59075;50.670;6.474;2022-08-19T18:20:45;926.63;;;864.30;;
15788;SDS011;59075;50.670;6.474;2022-08-19T18:23:12;927.07;;;864.77;;
15788;SDS011;59075;50.670;6.474;2022-08-19T18:25:39;928.23;;;866.13;;
15788;SDS011;59075;50.670;6.474;2022-08-19T18:28:05;928.93;;;866.47;;
15788;SDS011;59075;50.670;6.474;2022-08-19T18:30:33;916.30;;;854.50;;
15788;SDS011;59075;50.670;6.474;2022-08-19T18:33:00;929.43;;;867.03;;
15788;SDS011;59075;50.670;6.474;2022-08-19T18:35:30;925.33;;;863.17;;
15788;SDS011;59075;50.670;6.474;2022-08-19T18:37:58;929.37;;;866.90;;
15788;SDS011;59075;50.670;6.474;2022-08-19T18:40:27;925.83;;;863.83;;
15788;SDS011;59075;50.670;6.474;2022-08-19T18:43:12;922.83;;;860.73;;
15788;SDS011;59075;50.670;6.474;2022-08-19T18:45:57;926.03;;;863.97;;
15788;SDS011;59075;50.670;6.474;2022-08-19T18:48:41;920.83;;;858.80;;
15788;SDS011;59075;50.670;6.474;2022-08-19T18:51:26;919.13;;;857.40;;
15788;SDS011;59075;50.670;6.474;2022-08-19T18:53:55;917.63;;;855.83;;
15788;SDS011;59075;50.670;6.474;2022-08-19T18:56:24;921.80;;;859.43;;
15788;SDS011;59075;50.670;6.474;2022-08-19T18:58:56;921.40;;;859.40;;
15788;SDS011;59075;50.670;6.474;2022-08-19T19:01:24;918.87;;;857.00;;
15788;SDS011;59075;50.670;6.474;2022-08-19T19:03:53;918.30;;;856.53;;
15788;SDS011;59075;50.670;6.474;2022-08-19T19:06:22;922.70;;;860.57;;